Time;durP1;ratioP1;P1;durP2;ratioP2;P2;SDS_P1;SDS_P2;PMS_P1;PMS_P2;Temp;Humidity;BMP_temperature;BMP_pressure;BME280_temperature;BME280_humidity;BME280_pressure;Samples;Min_cycle;Max_cycle;Signal;HPM_P1;HPM_P2
2024/02/19 00:01:40;;;;;;;8.57;1.30;;;10.00;99.90;;;;;;5051062;28;20472;-68
2024/02/19 00:04:06;;;;;;;3.05;1.27;;;10.00;99.90;;;;;;5051481;28;20029;-69
2024/02/19 00:06:32;;;;;;;2.15;0.90;;;10.00;99.90;;;;;;5051119;28;20021;-66
2024/02/19 00:08:57;;;;;;;3.15;1.10;;;10.00;99.90;;;;;;5049580;28;20021;-68
2024/02/19 00:11:23;;;;;;;4.63;1.05;;;10.10;99.90;;;;;;5045245;28;20092;-66
2024/02/19 00:13:49;;;;;;;5.05;1.10;;;10.10;99.90;;;;;;5043892;28;20033;-67
2024/02/19 00:16:14;;;;;;;5.63;1.27;;;10.10;99.90;;;;;;5046290;28;20046;-68
2024/02/19 00:18:40;;;;;;;6.25;1.48;;;10.10;99.90;;;;;;5047430;28;20021;-68
2024/02/19 00:21:05;;;;;;;5.90;1.20;;;10.10;99.90;;;;;;5048028;28;20057;-68
2024/02/19 00:23:33;;;;;;;5.13;1.48;;;10.10;99.90;;;;;;5050296;28;20028;-66
2024/02/19 00:26:00;;;;;;;3.65;0.90;;;10.10;99.90;;;;;;5049514;28;20020;-66
2024/02/19 00:28:26;;;;;;;3.58;1.20;;;10.10;99.90;;;;;;5046539;28;20032;-66
2024/02/19 00:30:51;;;;;;;5.80;1.10;;;10.10;99.90;;;;;;5045518;28;20029;-66
2024/02/19 00:33:17;;;;;;;7.38;1.27;;;10.10;99.90;;;;;;5043319;28;20025;-67
2024/02/19 00:35:42;;;;;;;4.93;1.30;;;10.10;99.90;;;;;;5049511;28;20075;-67
2024/02/19 00:38:11;;;;;;;5.82;1.23;;;10.10;99.90;;;;;;5048100;28;20078;-66
2024/02/19 00:40:37;;;;;;;4.22;1.15;;;10.10;99.90;;;;;;5044574;28;20079;-67
2024/02/19 00:43:03;;;;;;;7.38;1.50;;;10.10;99.90;;;;;;5048157;28;20483;-64
2024/02/19 00:45:29;;;;;;;8.52;1.40;;;10.10;99.90;;;;;;5051401;28;20032;-67
2024/02/19 00:47:54;;;;;;;8.25;1.60;;;10.00;99.90;;;;;;5051531;28;20108;-67
2024/02/19 00:50:20;;;;;;;9.25;1.50;;;10.00;99.90;;;;;;5048788;28;20033;-66
2024/02/19 00:52:45;;;;;;;5.35;1.30;;;10.00;99.90;;;;;;5053077;28;20158;-67
2024/02/19 00:55:11;;;;;;;3.83;1.33;;;10.00;99.90;;;;;;5053204;28;20379;-67
2024/02/19 00:57:37;;;;;;;6.05;1.40;;;10.00;99.90;;;;;;5049086;28;20017;-65
2024/02/19 01:00:04;;;;;;;7.47;1.40;;;10.00;99.90;;;;;;5055137;28;20116;-67
2024/02/19 01:02:29;;;;;;;5.15;1.40;;;9.90;99.90;;;;;;5049949;28;20021;-68
2024/02/19 01:04:56;;;;;;;5.57;1.17;;;9.90;99.90;;;;;;5049920;28;20218;-67
2024/02/19 01:07:22;;;;;;;5.57;1.38;;;9.90;99.90;;;;;;5050083;28;20025;-67
2024/02/19 01:09:48;;;;;;;4.90;1.27;;;9.90;99.90;;;;;;5055455;28;20104;-67
2024/02/19 01:12:14;;;;;;;2.47;0.90;;;10.00;99.90;;;;;;5049804;28;20032;-68
2024/02/19 01:14:40;;;;;;;4.40;1.10;;;10.00;99.90;;;;;;5048150;28;20021;-67
2024/02/19 01:17:08;;;;;;;6.05;1.30;;;10.00;99.90;;;;;;5051383;28;20090;-68
2024/02/19 01:19:38;;;;;;;4.07;1.20;;;10.00;99.90;;;;;;5052231;28;20009;-68
2024/02/19 01:22:04;;;;;;;6.53;1.40;;;10.00;99.90;;;;;;5053399;28;20032;-68
2024/02/19 01:24:30;;;;;;;4.32;1.10;;;10.00;99.90;;;;;;5050765;28;20017;-67
2024/02/19 01:26:56;;;;;;;5.43;1.10;;;10.00;99.90;;;;;;5053022;28;20031;-67
2024/02/19 01:29:23;;;;;;;3.38;1.00;;;10.00;99.90;;;;;;5040160;28;20028;-67
2024/02/19 01:31:50;;;;;;;5.82;1.00;;;10.00;99.90;;;;;;5050938;28;20056;-67
2024/02/19 01:34:17;;;;;;;7.85;0.98;;;10.10;99.90;;;;;;5053022;28;20021;-67
2024/02/19 01:36:44;;;;;;;3.17;1.10;;;10.00;99.90;;;;;;5053178;28;20017;-67
2024/02/19 01:39:10;;;;;;;3.85;1.00;;;10.00;99.90;;;;;;5052148;28;20033;-67
2024/02/19 01:41:36;;;;;;;4.93;0.98;;;10.10;99.90;;;;;;5052495;28;20021;-66
2024/02/19 01:44:02;;;;;;;4.75;0.95;;;10.10;99.90;;;;;;5048806;28;20026;-68
2024/02/19 01:46:30;;;;;;;4.70;1.10;;;10.10;99.90;;;;;;5051071;28;20380;-67
2024/02/19 01:48:56;;;;;;;5.28;1.33;;;10.10;99.90;;;;;;5048139;28;20121;-66
2024/02/19 01:51:23;;;;;;;4.88;1.33;;;10.10;99.90;;;;;;5049952;28;20174;-66
2024/02/19 01:53:50;;;;;;;4.93;0.95;;;10.10;99.90;;;;;;5050206;28;20621;-66
2024/02/19 01:56:17;;;;;;;3.63;0.70;;;10.10;99.90;;;;;;5050407;28;20398;-67
2024/02/19 01:58:44;;;;;;;3.38;0.80;;;10.10;99.90;;;;;;5046152;28;20411;-67
2024/02/19 02:01:12;;;;;;;2.83;1.00;;;10.10;99.90;;;;;;5049609;28;20479;-68
2024/02/19 02:03:39;;;;;;;3.70;1.00;;;10.10;99.90;;;;;;5050913;28;20052;-68
2024/02/19 02:06:05;;;;;;;3.83;1.05;;;10.20;99.90;;;;;;5045169;28;20031;-68
2024/02/19 02:08:31;;;;;;;3.90;0.90;;;10.20;99.90;;;;;;5048407;28;20105;-68
2024/02/19 02:10:57;;;;;;;3.90;1.15;;;10.10;99.90;;;;;;5050932;28;20509;-68
2024/02/19 02:13:22;;;;;;;2.50;1.10;;;10.10;99.90;;;;;;5046741;28;20017;-67
2024/02/19 02:15:48;;;;;;;2.38;0.73;;;10.20;99.90;;;;;;5050407;28;20818;-69
2024/02/19 02:18:15;;;;;;;2.22;0.75;;;10.20;99.90;;;;;;5051316;28;20028;-68
2024/02/19 02:20:41;;;;;;;4.70;0.95;;;10.20;99.90;;;;;;5050976;28;20029;-68
2024/02/19 02:23:07;;;;;;;2.78;0.80;;;10.20;99.90;;;;;;5050945;28;20086;-68
2024/02/19 02:25:37;;;;;;;2.80;0.80;;;10.20;99.90;;;;;;5049333;28;20104;-68
2024/02/19 02:28:03;;;;;;;2.60;0.73;;;10.20;99.90;;;;;;5051054;28;20032;-69
2024/02/19 02:30:29;;;;;;;5.60;1.20;;;10.10;99.90;;;;;;5050854;28;20029;-68
2024/02/19 02:32:55;;;;;;;4.47;1.00;;;10.10;99.90;;;;;;5051721;28;20530;-67
2024/02/19 02:35:24;;;;;;;2.45;0.90;;;10.00;99.90;;;;;;5052487;28;20024;-69
2024/02/19 02:37:50;;;;;;;3.15;1.10;;;10.00;99.90;;;;;;5052215;28;20033;-69
2024/02/19 02:40:15;;;;;;;3.95;1.00;;;10.00;99.90;;;;;;5050440;28;20025;-68
2024/02/19 02:42:41;;;;;;;5.40;1.17;;;10.10;99.90;;;;;;5052469;28;20522;-67
2024/02/19 02:45:07;;;;;;;4.13;1.10;;;10.00;99.90;;;;;;5051661;28;20036;-68
2024/02/19 02:47:33;;;;;;;6.00;1.25;;;10.00;99.90;;;;;;5052017;28;20025;-68
2024/02/19 02:49:58;;;;;;;5.20;1.20;;;10.00;99.90;;;;;;5052040;28;20033;-68
2024/02/19 02:52:24;;;;;;;2.88;1.00;;;10.00;99.90;;;;;;5048691;28;20047;-68
2024/02/19 02:54:50;;;;;;;2.30;1.00;;;10.00;99.90;;;;;;5049901;28;20029;-67
2024/02/19 02:57:15;;;;;;;2.72;0.90;;;10.00;99.90;;;;;;5052433;28;20025;-67
2024/02/19 02:59:41;;;;;;;2.72;1.08;;;9.90;99.90;;;;;;5051523;28;20021;-67
2024/02/19 03:02:06;;;;;;;3.30;1.10;;;10.00;99.90;;;;;;5046662;28;20112;-67
2024/02/19 03:04:32;;;;;;;4.40;1.48;;;9.90;99.90;;;;;;5047809;28;20048;-67
2024/02/19 03:06:57;;;;;;;3.58;0.90;;;9.90;99.90;;;;;;5049363;28;20083;-67
2024/02/19 03:09:23;;;;;;;4.13;0.98;;;9.90;99.90;;;;;;5048387;28;20033;-67
2024/02/19 03:11:49;;;;;;;4.55;1.20;;;9.90;99.90;;;;;;5049555;28;20025;-67
2024/02/19 03:14:16;;;;;;;4.65;1.23;;;9.90;99.90;;;;;;5050306;28;20438;-67
2024/02/19 03:16:42;;;;;;;5.78;1.30;;;10.00;99.90;;;;;;5049531;28;20033;-67
2024/02/19 03:19:10;;;;;;;2.70;1.10;;;9.90;99.90;;;;;;5050265;28;20025;-67
2024/02/19 03:21:36;;;;;;;4.07;1.10;;;10.00;99.90;;;;;;5046992;28;20021;-67
2024/02/19 03:24:02;;;;;;;3.58;1.20;;;10.00;99.90;;;;;;5046004;28;20017;-67
2024/02/19 03:26:28;;;;;;;4.80;1.17;;;10.00;99.90;;;;;;5039966;28;20166;-68
2024/02/19 03:28:54;;;;;;;5.72;1.00;;;10.00;99.90;;;;;;5048068;28;20024;-67
2024/02/19 03:31:20;;;;;;;4.50;0.88;;;10.00;99.90;;;;;;5048710;28;20466;-68
2024/02/19 03:33:46;;;;;;;2.70;1.00;;;10.00;99.90;;;;;;5045671;28;20072;-68
2024/02/19 03:36:14;;;;;;;4.13;1.20;;;10.00;99.90;;;;;;5048517;28;20027;-68
2024/02/19 03:38:41;;;;;;;3.78;1.05;;;10.10;99.90;;;;;;5044346;28;20047;-68
2024/02/19 03:41:10;;;;;;;4.45;1.20;;;10.10;99.90;;;;;;5048362;28;20017;-68
2024/02/19 03:43:36;;;;;;;3.63;0.90;;;10.10;99.90;;;;;;5044992;28;20108;-67
2024/02/19 03:46:04;;;;;;;7.93;1.20;;;10.10;99.90;;;;;;5048843;28;20112;-67
2024/02/19 03:48:30;;;;;;;3.65;0.80;;;10.10;99.90;;;;;;5047750;28;20025;-68
2024/02/19 03:50:55;;;;;;;3.20;1.05;;;10.10;99.90;;;;;;5049748;28;20021;-67
2024/02/19 03:53:21;;;;;;;3.60;1.20;;;10.10;99.90;;;;;;5049072;28;20032;-67
2024/02/19 03:55:46;;;;;;;3.95;0.90;;;10.10;99.90;;;;;;5049494;28;20025;-67
2024/02/19 03:58:12;;;;;;;4.57;1.10;;;10.10;99.90;;;;;;5044794;28;20029;-67
2024/02/19 04:00:37;;;;;;;3.75;1.05;;;10.10;99.90;;;;;;5039770;28;20337;-67
2024/02/19 04:03:03;;;;;;;5.32;1.20;;;10.10;99.90;;;;;;5043863;28;20032;-66
2024/02/19 04:05:29;;;;;;;7.45;1.50;;;10.10;99.90;;;;;;5045780;28;20102;-66
2024/02/19 04:07:54;;;;;;;4.97;1.40;;;10.10;99.90;;;;;;5049527;28;20029;-66
2024/02/19 04:10:20;;;;;;;3.50;1.10;;;10.10;99.90;;;;;;5049818;28;20479;-66
2024/02/19 04:12:45;;;;;;;4.55;1.10;;;10.10;99.90;;;;;;5047806;28;20514;-66
2024/02/19 04:15:12;;;;;;;7.13;1.55;;;10.10;99.90;;;;;;5044922;28;20495;-66
2024/02/19 04:17:38;;;;;;;4.07;1.30;;;10.10;99.90;;;;;;5046923;28;20025;-68
2024/02/19 04:20:04;;;;;;;3.63;1.00;;;10.10;99.90;;;;;;5040253;28;20530;-66
2024/02/19 04:22:30;;;;;;;5.32;1.00;;;10.10;99.90;;;;;;5045008;28;20043;-66
2024/02/19 04:24:55;;;;;;;5.15;1.15;;;10.10;99.90;;;;;;5053647;28;20025;-65
2024/02/19 04:27:21;;;;;;;3.63;0.93;;;10.10;99.90;;;;;;5054266;28;20028;-66
2024/02/19 04:29:46;;;;;;;3.65;1.10;;;10.10;99.90;;;;;;5053769;28;20037;-67
2024/02/19 04:32:12;;;;;;;3.95;1.25;;;10.10;99.90;;;;;;5051418;28;20037;-66
2024/02/19 04:34:37;;;;;;;2.35;0.82;;;10.10;99.90;;;;;;5053568;28;20029;-67
2024/02/19 04:37:03;;;;;;;2.97;1.15;;;10.10;99.90;;;;;;5053715;28;20033;-66
2024/02/19 04:39:29;;;;;;;2.28;0.80;;;10.10;99.90;;;;;;5047746;28;20057;-67
2024/02/19 04:41:54;;;;;;;4.15;1.33;;;10.10;99.90;;;;;;5048438;28;20044;-67
2024/02/19 04:44:20;;;;;;;6.20;1.40;;;10.20;99.90;;;;;;5051090;28;20029;-67
2024/02/19 04:46:45;;;;;;;4.38;1.40;;;10.10;99.90;;;;;;5051544;28;20048;-68
2024/02/19 04:49:11;;;;;;;3.58;1.10;;;10.10;99.90;;;;;;5051447;28;20025;-66
2024/02/19 04:51:36;;;;;;;4.75;1.15;;;10.10;99.90;;;;;;5050364;28;20029;-66
2024/02/19 04:54:03;;;;;;;4.95;1.25;;;10.10;99.90;;;;;;5050358;28;20028;-66
2024/02/19 04:56:28;;;;;;;2.95;1.23;;;10.10;99.90;;;;;;5051215;28;20021;-67
2024/02/19 04:58:55;;;;;;;2.38;0.93;;;10.10;99.90;;;;;;5045913;28;20378;-67
2024/02/19 05:01:20;;;;;;;2.67;0.82;;;10.10;99.90;;;;;;5045852;28;20053;-68
2024/02/19 05:03:46;;;;;;;2.75;0.98;;;10.10;99.90;;;;;;5050892;28;20024;-66
2024/02/19 05:06:12;;;;;;;2.03;0.70;;;10.10;99.90;;;;;;5051513;28;20044;-68
2024/02/19 05:08:38;;;;;;;6.70;1.60;;;10.10;99.90;;;;;;5051085;28;20020;-68
2024/02/19 05:11:04;;;;;;;2.28;1.00;;;10.10;99.90;;;;;;5050838;28;20033;-67
2024/02/19 05:13:36;;;;;;;2.10;0.90;;;10.20;99.90;;;;;;5050419;28;20032;-67
2024/02/19 05:16:01;;;;;;;;;;;10.20;99.90;;;;;;5043326;28;20021;-67
2024/02/19 05:18:27;;;;;;;2.10;0.90;;;10.10;99.70;;;;;;5048815;28;19913;-72
2024/02/19 05:20:53;;;;;;;6.63;1.10;;;10.10;99.90;;;;;;5050256;28;20037;-69
2024/02/19 05:23:18;;;;;;;2.88;0.88;;;10.10;99.90;;;;;;5050492;28;20032;-68
2024/02/19 05:25:44;;;;;;;1.55;0.90;;;10.10;99.90;;;;;;5046720;28;20021;-68
2024/02/19 05:28:09;;;;;;;2.20;0.95;;;10.10;99.90;;;;;;5050517;28;20029;-68
2024/02/19 05:30:36;;;;;;;2.65;0.85;;;10.10;99.90;;;;;;5049855;28;20044;-68
2024/02/19 05:33:01;;;;;;;1.77;0.70;;;10.10;99.90;;;;;;5046455;28;20029;-67
2024/02/19 05:35:27;;;;;;;1.77;0.70;;;10.20;99.90;;;;;;5046746;28;20066;-66
2024/02/19 05:37:53;;;;;;;3.20;0.90;;;10.20;99.90;;;;;;5050781;28;20025;-66
2024/02/19 05:40:18;;;;;;;2.72;0.73;;;10.20;99.90;;;;;;5046110;28;20044;-66
2024/02/19 05:42:44;;;;;;;2.50;0.70;;;10.20;99.90;;;;;;5050424;28;20025;-66
2024/02/19 05:45:10;;;;;;;3.00;0.82;;;10.20;99.90;;;;;;5052002;28;20498;-67
2024/02/19 05:47:35;;;;;;;2.38;0.80;;;10.20;99.90;;;;;;5047687;28;20510;-66
2024/02/19 05:50:01;;;;;;;5.53;1.38;;;10.20;99.90;;;;;;5049916;28;20025;-66
2024/02/19 05:52:27;;;;;;;6.32;1.33;;;10.20;99.80;;;;;;5041669;28;20076;-67
2024/02/19 05:54:53;;;;;;;5.53;1.35;;;10.20;99.90;;;;;;5048722;28;20423;-67
2024/02/19 05:57:19;;;;;;;5.03;1.10;;;10.10;99.90;;;;;;5048948;28;20056;-67
2024/02/19 05:59:44;;;;;;;2.35;0.95;;;10.20;99.90;;;;;;5047251;28;20052;-68
2024/02/19 06:02:10;;;;;;;2.83;1.00;;;10.20;99.90;;;;;;5048638;28;20076;-68
2024/02/19 06:04:35;;;;;;;4.75;1.13;;;10.20;99.90;;;;;;5045494;28;20032;-67
2024/02/19 06:07:01;;;;;;;4.70;1.30;;;10.20;99.90;;;;;;5042771;28;20086;-69
2024/02/19 06:09:27;;;;;;;2.78;1.20;;;10.20;99.90;;;;;;5044626;28;20056;-68
2024/02/19 06:11:53;;;;;;;3.47;1.10;;;10.20;99.90;;;;;;5041640;28;20029;-68
2024/02/19 06:14:19;;;;;;;3.78;0.80;;;10.20;99.80;;;;;;5043667;28;20115;-68
2024/02/19 06:16:44;;;;;;;3.80;1.13;;;10.20;99.80;;;;;;5045991;28;20025;-68
2024/02/19 06:19:10;;;;;;;2.47;0.80;;;10.30;99.90;;;;;;5049719;28;20074;-68
2024/02/19 06:21:35;;;;;;;2.70;1.17;;;10.20;99.70;;;;;;5046000;28;20094;-68
2024/02/19 06:24:01;;;;;;;3.45;1.08;;;10.20;99.80;;;;;;5043525;28;20101;-68
2024/02/19 06:26:26;;;;;;;3.83;1.20;;;10.20;99.80;;;;;;5042528;28;20025;-68
2024/02/19 06:28:52;;;;;;;1.88;0.95;;;10.20;99.80;;;;;;5036929;28;20548;-68
2024/02/19 06:31:18;;;;;;;5.85;1.58;;;10.20;99.80;;;;;;5043126;28;20491;-69
2024/02/19 06:33:43;;;;;;;4.82;1.27;;;10.20;99.80;;;;;;5041186;28;20067;-68
2024/02/19 06:36:09;;;;;;;3.78;1.20;;;10.20;99.80;;;;;;5047758;28;20021;-67
2024/02/19 06:38:34;;;;;;;2.03;0.90;;;10.20;99.80;;;;;;5044561;28;20074;-68
2024/02/19 06:41:00;;;;;;;3.33;1.45;;;10.20;99.80;;;;;;5044978;28;20170;-68
2024/02/19 06:43:26;;;;;;;6.28;1.50;;;10.20;99.90;;;;;;5047540;28;20029;-67
2024/02/19 06:45:52;;;;;;;3.80;1.40;;;10.20;99.90;;;;;;5049319;28;20365;-69
2024/02/19 06:48:18;;;;;;;3.08;1.52;;;10.20;99.90;;;;;;5048670;28;20391;-67
2024/02/19 06:50:43;;;;;;;2.97;1.40;;;10.20;99.80;;;;;;5048400;28;20033;-68
2024/02/19 06:53:09;;;;;;;5.13;1.90;;;10.20;99.80;;;;;;5040216;28;20497;-70
2024/02/19 06:55:34;;;;;;;5.95;2.05;;;10.20;99.70;;;;;;5045826;28;20037;-68
2024/02/19 06:58:00;;;;;;;6.18;1.55;;;10.20;99.70;;;;;;5054062;28;20040;-68
2024/02/19 07:00:26;;;;;;;4.65;2.05;;;10.20;99.70;;;;;;5052502;28;20463;-68
2024/02/19 07:02:51;;;;;;;4.63;2.00;;;10.20;99.70;;;;;;5049389;28;20113;-69
2024/02/19 07:05:18;;;;;;;3.00;1.60;;;10.20;99.70;;;;;;5047230;28;20481;-69
2024/02/19 07:07:43;;;;;;;4.03;1.65;;;10.30;99.70;;;;;;5046810;28;20021;-69
2024/02/19 07:10:09;;;;;;;3.53;1.40;;;10.30;99.70;;;;;;5043532;28;20025;-70
2024/02/19 07:12:34;;;;;;;4.88;1.75;;;10.30;99.60;;;;;;5045747;28;20071;-69
2024/02/19 07:15:00;;;;;;;4.80;1.77;;;10.30;99.70;;;;;;5049582;28;20070;-69
2024/02/19 07:17:28;;;;;;;3.22;1.40;;;10.30;99.60;;;;;;5044142;28;20025;-68
2024/02/19 07:19:54;;;;;;;3.08;1.67;;;10.30;99.60;;;;;;5046003;28;20437;-69
2024/02/19 07:22:19;;;;;;;2.63;1.40;;;10.30;99.70;;;;;;5044242;28;20078;-68
2024/02/19 07:24:46;;;;;;;5.45;2.03;;;10.30;99.90;;;;;;5045608;28;20029;-68
2024/02/19 07:27:12;;;;;;;3.15;1.20;;;10.30;99.60;;;;;;5049701;28;20120;-66
2024/02/19 07:29:37;;;;;;;3.47;1.15;;;10.40;99.70;;;;;;5050920;28;20059;-66
2024/02/19 07:32:03;;;;;;;3.28;1.20;;;10.40;99.60;;;;;;5048636;28;20452;-67
2024/02/19 07:34:29;;;;;;;5.00;1.80;;;10.40;99.70;;;;;;5041978;28;20040;-68
2024/02/19 07:36:54;;;;;;;6.95;2.65;;;10.40;99.70;;;;;;5047202;28;20025;-68
2024/02/19 07:39:20;;;;;;;8.43;2.28;;;10.40;99.70;;;;;;5043220;28;20025;-66
2024/02/19 07:41:46;;;;;;;4.57;1.83;;;10.50;99.60;;;;;;5043994;28;20124;-67
2024/02/19 07:44:11;;;;;;;6.20;1.70;;;10.50;99.50;;;;;;5045816;28;20048;-67
2024/02/19 07:46:37;;;;;;;4.45;1.80;;;10.50;99.40;;;;;;5047257;28;20048;-67
2024/02/19 07:49:03;;;;;;;4.43;1.67;;;10.50;99.70;;;;;;5047268;28;20028;-67
2024/02/19 07:51:28;;;;;;;3.15;1.25;;;10.60;99.40;;;;;;5044863;28;20025;-67
2024/02/19 07:53:55;;;;;;;2.42;1.20;;;10.60;99.40;;;;;;5048450;28;20070;-68
2024/02/19 07:56:20;;;;;;;3.33;1.20;;;10.60;99.20;;;;;;5046797;28;20383;-67
2024/02/19 07:58:46;;;;;;;3.30;1.30;;;10.70;99.20;;;;;;5044635;28;20029;-67
2024/02/19 08:01:11;;;;;;;4.30;1.10;;;10.70;99.20;;;;;;5040279;28;20029;-68
2024/02/19 08:03:37;;;;;;;2.28;1.00;;;10.70;99.20;;;;;;5045010;28;20032;-67
2024/02/19 08:06:03;;;;;;;2.95;1.20;;;10.70;99.10;;;;;;5048271;28;20037;-67
2024/02/19 08:08:29;;;;;;;4.63;1.48;;;10.70;99.10;;;;;;5047222;28;20048;-67
2024/02/19 08:10:54;;;;;;;2.50;1.20;;;10.80;99.20;;;;;;5049118;28;20029;-66
2024/02/19 08:13:20;;;;;;;3.25;1.55;;;10.80;99.10;;;;;;5046948;28;20021;-67
2024/02/19 08:15:46;;;;;;;4.05;1.60;;;10.80;99.10;;;;;;5048033;28;20108;-67
2024/02/19 08:18:12;;;;;;;3.08;1.35;;;10.90;99.00;;;;;;5045265;28;20056;-69
2024/02/19 08:20:38;;;;;;;3.22;1.35;;;10.90;99.00;;;;;;5040920;28;20045;-69
2024/02/19 08:23:05;;;;;;;4.50;1.60;;;10.90;99.00;;;;;;5047730;28;20101;-68
2024/02/19 08:25:31;;;;;;;4.35;1.92;;;10.90;99.00;;;;;;5046660;28;20017;-67
2024/02/19 08:27:57;;;;;;;3.75;1.50;;;11.00;99.00;;;;;;5046344;28;20025;-68
2024/02/19 08:30:22;;;;;;;4.63;1.55;;;11.00;99.00;;;;;;5047160;28;20036;-67
2024/02/19 08:32:48;;;;;;;2.53;1.23;;;11.00;99.00;;;;;;5047458;28;20116;-68
2024/02/19 08:35:13;;;;;;;5.15;1.17;;;11.10;98.90;;;;;;5043092;28;20096;-67
2024/02/19 08:37:39;;;;;;;2.78;1.15;;;11.10;98.80;;;;;;5038866;28;20036;-68
2024/02/19 08:40:06;;;;;;;5.95;1.52;;;11.20;98.80;;;;;;5037371;28;20021;-66
2024/02/19 08:42:31;;;;;;;4.47;1.40;;;11.20;98.70;;;;;;5038051;28;25100;-66
2024/02/19 08:44:57;;;;;;;4.13;1.25;;;11.20;98.70;;;;;;5047566;28;20040;-67
2024/02/19 08:47:22;;;;;;;2.95;1.45;;;11.30;98.70;;;;;;5044752;28;20037;-67
2024/02/19 08:49:48;;;;;;;6.43;1.83;;;11.30;98.60;;;;;;5046619;28;20437;-67
2024/02/19 08:52:14;;;;;;;5.28;1.98;;;11.30;98.70;;;;;;5048015;28;20055;-68
2024/02/19 08:54:40;;;;;;;5.40;1.95;;;11.30;98.70;;;;;;5045030;28;20036;-68
2024/02/19 08:57:06;;;;;;;5.13;1.70;;;11.40;98.70;;;;;;5044359;28;20571;-69
2024/02/19 08:59:35;;;;;;;4.00;1.80;;;11.40;98.60;;;;;;5047049;28;20091;-68
2024/02/19 09:02:01;;;;;;;4.30;1.80;;;11.40;98.50;;;;;;5040042;28;20653;-67
2024/02/19 09:04:27;;;;;;;4.18;1.73;;;11.40;98.50;;;;;;5045900;28;20021;-66
2024/02/19 09:06:52;;;;;;;5.45;1.85;;;11.50;98.50;;;;;;5039746;28;20029;-68
2024/02/19 09:09:18;;;;;;;4.05;1.60;;;11.50;98.50;;;;;;5044746;28;20025;-69
2024/02/19 09:11:43;;;;;;;3.80;1.67;;;11.60;98.50;;;;;;5049126;28;20021;-67
2024/02/19 09:14:09;;;;;;;6.22;1.90;;;11.60;98.40;;;;;;5048024;28;20086;-69
2024/02/19 09:16:34;;;;;;;3.10;1.67;;;11.60;98.30;;;;;;5043815;28;20395;-67
2024/02/19 09:19:05;;;;;;;4.07;1.77;;;11.70;98.30;;;;;;5048481;28;20483;-68
2024/02/19 09:21:30;;;;;;;7.25;2.10;;;11.70;98.30;;;;;;5048632;28;20013;-69
2024/02/19 09:23:57;;;;;;;6.15;2.20;;;11.60;98.20;;;;;;5050440;28;20072;-69
2024/02/19 09:26:23;;;;;;;4.20;1.92;;;11.60;98.30;;;;;;5049971;28;20565;-68
2024/02/19 09:28:48;;;;;;;4.43;1.80;;;11.60;98.40;;;;;;5049815;28;20558;-67
2024/02/19 09:31:14;;;;;;;3.40;1.60;;;11.50;98.40;;;;;;5050280;28;20446;-68
2024/02/19 09:33:40;;;;;;;3.17;1.77;;;11.50;98.50;;;;;;5042211;28;20491;-67
2024/02/19 09:36:11;;;;;;;3.00;1.50;;;11.60;98.50;;;;;;5048662;28;20028;-67
2024/02/19 09:38:37;;;;;;;4.57;1.45;;;11.50;98.50;;;;;;5045147;28;20796;-67
2024/02/19 09:41:05;;;;;;;3.03;1.42;;;11.50;98.50;;;;;;5048426;28;20075;-68
2024/02/19 09:43:31;;;;;;;3.40;1.85;;;11.60;98.60;;;;;;5047764;28;20037;-67
2024/02/19 09:45:58;;;;;;;4.80;2.17;;;11.60;98.60;;;;;;5049928;28;20033;-67
2024/02/19 09:48:25;;;;;;;4.38;1.60;;;11.60;98.50;;;;;;5048165;28;20033;-68
2024/02/19 09:50:53;;;;;;;3.00;1.55;;;11.60;98.50;;;;;;5052100;28;20029;-68
2024/02/19 09:53:23;;;;;;;4.07;1.40;;;11.70;98.50;;;;;;5041174;28;20043;-69
2024/02/19 09:55:49;;;;;;;2.90;1.40;;;11.70;98.40;;;;;;5050049;28;20033;-69
2024/02/19 09:58:15;;;;;;;4.95;1.70;;;11.80;98.30;;;;;;5045079;28;20683;-69
2024/02/19 10:00:41;;;;;;;5.82;2.05;;;11.80;98.20;;;;;;5048956;28;20032;-67
2024/02/19 10:03:07;;;;;;;4.30;1.80;;;11.90;98.10;;;;;;5041905;28;20443;-68
2024/02/19 10:05:33;;;;;;;2.05;1.48;;;11.90;98.10;;;;;;5049227;28;20061;-69
2024/02/19 10:08:04;;;;;;;3.33;1.90;;;12.00;98.00;;;;;;5049139;28;20124;-69
2024/02/19 10:10:32;;;;;;;4.47;1.70;;;11.90;97.80;;;;;;5049656;28;20029;-68
2024/02/19 10:12:58;;;;;;;4.07;1.38;;;12.00;97.90;;;;;;5047951;28;20028;-67
2024/02/19 10:15:23;;;;;;;3.38;1.58;;;12.00;97.90;;;;;;5054870;28;20059;-68
2024/02/19 10:17:49;;;;;;;2.75;1.58;;;12.00;97.80;;;;;;5046656;28;20028;-67
2024/02/19 10:20:15;;;;;;;3.63;1.23;;;12.00;97.70;;;;;;5044500;28;20460;-66
2024/02/19 10:22:40;;;;;;;3.50;1.80;;;12.00;97.70;;;;;;5049858;28;20032;-68
2024/02/19 10:25:07;;;;;;;4.53;2.05;;;12.00;97.70;;;;;;5055879;28;20527;-68
2024/02/19 10:27:37;;;;;;;5.13;2.05;;;12.00;97.60;;;;;;5045414;28;20595;-66
2024/02/19 10:30:06;;;;;;;4.93;1.83;;;12.00;97.70;;;;;;5051234;28;20029;-67
2024/02/19 10:32:32;;;;;;;4.88;2.08;;;12.00;97.80;;;;;;5047994;28;20024;-68
2024/02/19 10:34:58;;;;;;;4.80;2.10;;;12.00;97.60;;;;;;5047935;28;20032;-67
2024/02/19 10:37:23;;;;;;;3.17;1.55;;;12.00;97.70;;;;;;5053101;28;20475;-67
2024/02/19 10:39:49;;;;;;;4.15;1.90;;;12.10;97.70;;;;;;5049962;28;20025;-67
2024/02/19 10:42:15;;;;;;;4.82;2.50;;;12.10;97.60;;;;;;5049667;28;20041;-68
2024/02/19 10:44:41;;;;;;;4.70;2.00;;;12.10;97.50;;;;;;5047306;28;20059;-67
2024/02/19 10:47:08;;;;;;;4.95;2.10;;;12.10;97.50;;;;;;5049680;28;20162;-68
2024/02/19 10:49:34;;;;;;;5.07;2.40;;;12.10;97.50;;;;;;5046678;28;20029;-68
2024/02/19 10:51:59;;;;;;;4.85;2.30;;;12.10;97.40;;;;;;5049704;28;20688;-68
2024/02/19 10:54:26;;;;;;;4.88;2.33;;;12.10;97.50;;;;;;5048090;28;20024;-68
2024/02/19 10:56:52;;;;;;;4.45;2.10;;;12.00;97.40;;;;;;5049284;28;20575;-66
2024/02/19 10:59:18;;;;;;;5.63;2.33;;;12.00;97.50;;;;;;5048969;28;20052;-66
2024/02/19 11:01:46;;;;;;;5.32;2.17;;;12.00;97.60;;;;;;5047037;28;20028;-66
2024/02/19 11:04:19;;;;;;;4.43;2.53;;;11.90;97.60;;;;;;5043629;28;20033;-67
2024/02/19 11:06:55;;;;;;;5.40;2.45;;;12.00;97.70;;;;;;5049644;28;20038;-67
2024/02/19 11:09:22;;;;;;;4.55;2.30;;;12.00;97.70;;;;;;5041614;28;20040;-67
2024/02/19 11:11:59;;;;;;;5.47;2.40;;;11.90;97.60;;;;;;5044857;28;20036;-67
2024/02/19 11:14:33;;;;;;;4.50;2.08;;;11.90;97.60;;;;;;5047677;28;20028;-67
2024/02/19 11:17:00;;;;;;;3.47;1.70;;;12.00;97.60;;;;;;5050684;28;20112;-68
2024/02/19 11:19:27;;;;;;;3.78;2.20;;;12.00;97.60;;;;;;5048747;28;20025;-67
2024/02/19 11:22:10;;;;;;;6.00;2.50;;;11.90;97.60;;;;;;5049611;28;20032;-68
2024/02/19 11:24:36;;;;;;;4.80;2.22;;;11.90;97.60;;;;;;5047329;28;20024;-68
2024/02/19 11:27:07;;;;;;;4.45;2.08;;;11.90;97.60;;;;;;5045830;28;20025;-67
2024/02/19 11:29:33;;;;;;;4.80;1.83;;;11.90;97.60;;;;;;5046288;28;20067;-67
2024/02/19 11:32:03;;;;;;;8.52;2.83;;;12.00;97.70;;;;;;5040770;28;20032;-68
2024/02/19 11:34:29;;;;;;;3.58;2.17;;;11.90;97.60;;;;;;5047078;28;20029;-67
2024/02/19 11:37:05;;;;;;;4.63;2.65;;;12.00;97.70;;;;;;5048298;28;20062;-68
2024/02/19 11:39:31;;;;;;;2.80;2.00;;;12.00;97.60;;;;;;5046448;28;20096;-67
2024/02/19 11:42:02;;;;;;;4.93;1.73;;;12.00;97.60;;;;;;5046612;28;20547;-68
2024/02/19 11:44:29;;;;;;;4.60;1.70;;;12.00;97.60;;;;;;5047039;28;20055;-67
2024/02/19 11:46:56;;;;;;;2.25;1.30;;;12.10;97.60;;;;;;5046457;28;20036;-67
2024/02/19 11:49:22;;;;;;;5.72;2.10;;;12.10;97.50;;;;;;5046306;28;20062;-69
2024/02/19 11:51:48;;;;;;;2.63;1.90;;;12.10;97.40;;;;;;5040106;28;20037;-68
2024/02/19 11:54:18;;;;;;;3.88;1.77;;;12.20;97.50;;;;;;5047901;28;20044;-68
2024/02/19 11:56:53;;;;;;;4.40;2.13;;;12.20;97.40;;;;;;5042293;28;20013;-67
2024/02/19 11:59:19;;;;;;;5.97;2.40;;;12.20;97.40;;;;;;5039761;28;20103;-67
2024/02/19 12:01:51;;;;;;;3.58;1.75;;;12.20;97.30;;;;;;5046743;28;20112;-67
2024/02/19 12:04:16;;;;;;;;;;;12.20;97.20;;;;;;5049925;28;20067;-66
2024/02/19 12:06:42;;;;;;;4.82;2.05;;;12.20;97.10;;;;;;5045093;28;19940;-67
2024/02/19 12:09:08;;;;;;;4.93;2.22;;;12.20;97.20;;;;;;5043619;28;20064;-67
2024/02/19 12:11:35;;;;;;;5.65;2.22;;;12.20;97.20;;;;;;5046003;28;20044;-67
2024/02/19 12:14:04;;;;;;;4.78;1.90;;;12.10;97.20;;;;;;5045624;28;20033;-68
2024/02/19 12:16:29;;;;;;;4.47;2.10;;;12.10;97.30;;;;;;5048492;28;20442;-67
2024/02/19 12:18:55;;;;;;;6.43;2.33;;;12.10;97.30;;;;;;5047162;28;20040;-67
2024/02/19 12:21:22;;;;;;;4.43;2.20;;;12.10;97.30;;;;;;5037831;28;20040;-69
2024/02/19 12:23:50;;;;;;;3.70;1.80;;;12.10;97.30;;;;;;5046314;28;20036;-68
2024/02/19 12:26:16;;;;;;;7.55;2.33;;;12.10;97.30;;;;;;5049262;28;20483;-69
2024/02/19 12:28:41;;;;;;;5.22;2.22;;;12.10;97.30;;;;;;5046839;28;20025;-68
2024/02/19 12:31:08;;;;;;;5.10;2.25;;;12.10;97.20;;;;;;5043199;28;20024;-69
2024/02/19 12:33:37;;;;;;;4.60;2.00;;;12.00;97.20;;;;;;5048859;28;20060;-68
2024/02/19 12:36:12;;;;;;;2.22;1.50;;;12.00;97.20;;;;;;5047887;28;20099;-68
2024/02/19 12:38:41;;;;;;;6.00;1.90;;;12.00;97.30;;;;;;5047802;28;20094;-66
2024/02/19 12:41:17;;;;;;;5.90;2.08;;;12.00;97.40;;;;;;5049266;28;20025;-67
2024/02/19 12:43:46;;;;;;;3.67;1.63;;;12.10;97.40;;;;;;5052791;28;20029;-68